createdAt,value
2018-05-07T00:01:46.294Z,2.30
2018-05-07T00:04:15.624Z,2.40
2018-05-07T00:06:44.001Z,2.80
2018-05-07T00:09:13.231Z,2.80
2018-05-07T00:11:41.682Z,2.78
2018-05-07T00:14:09.929Z,2.53
2018-05-07T00:16:38.740Z,3.10
2018-05-07T00:19:07.105Z,2.50
2018-05-07T00:21:35.458Z,2.37
2018-05-07T00:24:04.589Z,2.57
2018-05-07T00:26:33.082Z,2.70
2018-05-07T00:29:01.700Z,2.80
2018-05-07T00:31:30.041Z,3.00
2018-05-07T00:33:58.394Z,2.80
2018-05-07T00:36:26.741Z,3.00
2018-05-07T00:38:56.179Z,2.87
2018-05-07T00:41:24.840Z,2.70
2018-05-07T00:43:53.967Z,3.17
2018-05-07T00:46:22.291Z,2.90
2018-05-07T00:48:50.657Z,3.03
2018-05-07T00:51:19.002Z,2.90
2018-05-07T00:53:47.972Z,2.93
2018-05-07T00:56:17.126Z,2.80
2018-05-07T00:58:45.485Z,3.10
2018-05-07T01:01:13.927Z,3.00
2018-05-07T01:03:43.281Z,2.80
2018-05-07T01:06:11.661Z,2.93
2018-05-07T01:08:40.007Z,2.63
2018-05-07T01:11:08.358Z,3.10
2018-05-07T01:13:37.510Z,2.90
2018-05-07T01:16:06.732Z,2.70
2018-05-07T01:18:35.122Z,2.80
2018-05-07T01:21:04.278Z,2.60
2018-05-07T01:23:32.650Z,2.90
2018-05-07T01:26:01.100Z,2.90
2018-05-07T01:28:30.840Z,2.80
2018-05-07T01:30:59.176Z,2.90
2018-05-07T01:33:28.277Z,3.10
2018-05-07T01:35:57.386Z,2.70
2018-05-07T01:38:26.624Z,2.83
2018-05-07T01:40:55.873Z,3.13
2018-05-07T01:43:25.010Z,2.87
2018-05-07T01:45:53.346Z,3.30
2018-05-07T01:48:22.691Z,2.57
2018-05-07T01:50:52.059Z,2.83
2018-05-07T01:53:20.426Z,2.83
2018-05-07T01:55:49.565Z,2.73
2018-05-07T01:58:17.887Z,2.70
2018-05-07T02:00:47.049Z,3.17
2018-05-07T02:03:15.393Z,3.00
2018-05-07T02:05:43.759Z,2.60
2018-05-07T02:08:13.009Z,2.77
2018-05-07T02:10:42.270Z,2.80
2018-05-07T02:13:10.597Z,3.23
2018-05-07T02:15:38.965Z,3.00
2018-05-07T02:18:07.309Z,3.20
2018-05-07T02:20:35.716Z,3.17
2018-05-07T02:23:04.896Z,3.13
2018-05-07T02:25:33.273Z,2.90
2018-05-07T02:28:01.661Z,3.20
2018-05-07T02:30:30.063Z,2.97
2018-05-07T02:32:58.437Z,3.07
2018-05-07T02:35:27.578Z,3.50
2018-05-07T02:37:56.701Z,3.37
2018-05-07T02:40:25.041Z,3.20
2018-05-07T02:42:54.135Z,3.37
2018-05-07T02:45:23.233Z,3.30
2018-05-07T02:47:52.476Z,3.30
2018-05-07T02:50:20.917Z,3.20
2018-05-07T02:52:50.738Z,3.13
2018-05-07T02:55:19.857Z,3.13
2018-05-07T02:57:48.182Z,3.30
2018-05-07T03:00:18.251Z,3.60
2018-05-07T03:02:46.577Z,3.57
2018-05-07T03:05:14.916Z,3.40
2018-05-07T03:07:43.679Z,3.23
2018-05-07T03:10:12.087Z,3.33
2018-05-07T03:12:40.462Z,3.50
2018-05-07T03:15:08.788Z,3.20
2018-05-07T03:17:38.303Z,3.90
2018-05-07T03:20:08.013Z,3.53
2018-05-07T03:22:37.455Z,3.57
2018-05-07T03:25:05.794Z,3.60
2018-05-07T03:27:34.943Z,3.50
2018-05-07T03:30:03.306Z,3.80
2018-05-07T03:32:31.669Z,3.90
2018-05-07T03:35:00.690Z,3.47
2018-05-07T03:37:29.024Z,3.83
2018-05-07T03:39:58.217Z,3.80
2018-05-07T03:42:28.237Z,3.37
2018-05-07T03:44:57.360Z,3.70
2018-05-07T03:47:25.771Z,3.67
2018-05-07T03:49:54.117Z,3.70
2018-05-07T03:52:22.498Z,4.07
2018-05-07T03:54:50.827Z,3.43
2018-05-07T03:57:19.177Z,3.67
2018-05-07T03:59:48.258Z,3.60
2018-05-07T04:02:16.918Z,3.90
2018-05-07T04:04:45.297Z,3.80
2018-05-07T04:07:14.395Z,3.97
2018-05-07T04:09:44.800Z,3.80
2018-05-07T04:12:14.084Z,4.17
2018-05-07T04:14:42.462Z,3.80
2018-05-07T04:20:41.949Z,3.80
2018-05-07T04:23:27.959Z,3.80
2018-05-07T04:25:56.283Z,4.13
2018-05-07T04:28:25.365Z,4.10
2018-05-07T04:30:54.520Z,4.00
2018-05-07T04:33:23.004Z,3.87
2018-05-07T04:35:51.528Z,4.53
2018-05-07T04:38:20.632Z,4.20
2018-05-07T04:40:49.745Z,4.27
2018-05-07T04:43:18.092Z,4.60
2018-05-07T04:45:46.440Z,4.37
2018-05-07T04:48:14.786Z,3.67
2018-05-07T04:50:43.221Z,4.37
2018-05-07T04:53:12.050Z,4.30
2018-05-07T04:55:41.356Z,4.47
2018-05-07T04:58:09.778Z,4.47
2018-05-07T05:00:38.834Z,4.20
2018-05-07T05:03:07.538Z,4.30
2018-05-07T05:05:35.922Z,4.23
2018-05-07T05:08:04.270Z,4.63
2018-05-07T05:10:32.628Z,4.33
2018-05-07T05:13:01.751Z,4.20
2018-05-07T05:15:30.835Z,4.43
2018-05-07T05:17:59.235Z,4.00
2018-05-07T05:20:27.565Z,5.13
2018-05-07T05:22:55.892Z,4.30
2018-05-07T05:25:24.252Z,4.40
2018-05-07T05:27:52.617Z,4.97
2018-05-07T05:30:21.751Z,4.57
2018-05-07T05:32:50.332Z,4.10
2018-05-07T05:35:18.723Z,4.50
2018-05-07T05:37:47.099Z,4.10
2018-05-07T05:40:15.485Z,4.60
2018-05-07T05:42:43.850Z,5.07
2018-05-07T05:45:12.210Z,4.37
2018-05-07T05:47:40.585Z,4.67
2018-05-07T05:50:08.999Z,4.77
2018-05-07T05:52:37.396Z,4.53
2018-05-07T05:55:05.808Z,4.43
2018-05-07T05:57:35.000Z,4.40
2018-05-07T06:00:04.116Z,4.50
2018-05-07T06:02:32.462Z,4.73
2018-05-07T06:05:00.783Z,3.40
2018-05-07T06:07:30.022Z,4.23
2018-05-07T06:09:59.040Z,4.20
2018-05-07T06:12:28.349Z,4.30
2018-05-07T06:14:57.560Z,4.57
2018-05-07T06:17:27.845Z,4.37
2018-05-07T06:19:57.416Z,4.10
2018-05-07T06:22:25.925Z,5.00
2018-05-07T06:24:54.844Z,5.17
2018-05-07T06:27:24.977Z,4.80
2018-05-07T06:29:53.548Z,4.20
2018-05-07T06:32:22.695Z,4.40
2018-05-07T06:34:51.089Z,4.50
2018-05-07T06:37:19.471Z,4.10
2018-05-07T06:39:49.779Z,4.75
2018-05-07T06:42:19.080Z,4.33
2018-05-07T06:44:47.443Z,4.20
2018-05-07T06:47:15.932Z,4.00
2018-05-07T06:49:44.298Z,3.85
2018-05-07T06:52:12.700Z,3.87
2018-05-07T06:54:41.030Z,4.40
2018-05-07T06:57:10.154Z,3.83
2018-05-07T06:59:38.634Z,4.47
2018-05-07T07:02:07.707Z,4.03
2018-05-07T07:04:36.839Z,4.17
2018-05-07T07:07:06.175Z,4.50
2018-05-07T07:09:35.724Z,4.40
2018-05-07T07:12:04.085Z,4.73
2018-05-07T07:14:33.262Z,4.53
2018-05-07T07:17:01.778Z,4.77
2018-05-07T07:19:30.407Z,4.03
2018-05-07T07:21:58.764Z,4.67
2018-05-07T07:24:27.739Z,4.50
2018-05-07T07:26:56.759Z,4.10
2018-05-07T07:29:25.102Z,3.83
2018-05-07T07:31:53.600Z,4.07
2018-05-07T07:34:22.164Z,4.47
2018-05-07T07:36:51.295Z,4.00
2018-05-07T07:39:19.686Z,3.53
2018-05-07T07:41:48.057Z,3.70
2018-05-07T07:44:16.404Z,3.17
2018-05-07T07:46:44.853Z,3.53
2018-05-07T07:49:13.197Z,3.40
2018-05-07T07:51:41.542Z,3.67
2018-05-07T07:54:09.915Z,3.70
2018-05-07T07:56:38.269Z,3.53
2018-05-07T07:59:07.413Z,3.80
2018-05-07T08:01:36.443Z,3.57
2018-05-07T08:04:05.502Z,3.60
2018-05-07T08:06:33.845Z,3.90
2018-05-07T08:09:03.007Z,3.70
2018-05-07T08:11:31.402Z,3.90
2018-05-07T08:14:00.759Z,3.17
2018-05-07T08:16:29.411Z,3.67
2018-05-07T08:18:57.822Z,3.40
2018-05-07T08:21:26.151Z,3.77
2018-05-07T08:23:55.289Z,3.10
2018-05-07T08:26:23.634Z,2.50
2018-05-07T08:28:52.768Z,2.53
2018-05-07T08:31:21.146Z,2.73
2018-05-07T08:33:50.551Z,2.90
2018-05-07T08:36:18.995Z,2.70
2018-05-07T08:38:48.087Z,2.70
2018-05-07T08:41:17.628Z,2.80
2018-05-07T08:43:45.975Z,3.23
2018-05-07T08:46:15.381Z,2.80
2018-05-07T08:48:44.531Z,3.10
2018-05-07T08:51:12.913Z,2.67
2018-05-07T08:53:41.253Z,2.50
2018-05-07T08:56:09.673Z,3.20
2018-05-07T08:58:39.149Z,3.10
2018-05-07T09:01:07.471Z,2.90
2018-05-07T09:03:35.829Z,2.80
2018-05-07T09:06:04.224Z,2.87
2018-05-07T09:08:32.596Z,2.70
2018-05-07T09:11:00.990Z,3.03
2018-05-07T09:13:30.011Z,2.97
2018-05-07T09:15:58.701Z,3.08
2018-05-07T09:21:26.748Z,2.57
2018-05-07T09:23:55.135Z,2.45
2018-05-07T09:26:24.488Z,2.60
2018-05-07T09:28:53.753Z,3.20
2018-05-07T09:31:22.881Z,2.47
2018-05-07T09:33:51.757Z,2.90
2018-05-07T09:36:20.174Z,2.67
2018-05-07T09:38:48.529Z,3.00
2018-05-07T09:41:16.978Z,2.70
2018-05-07T09:43:46.103Z,3.03
2018-05-07T09:46:14.528Z,2.50
2018-05-07T09:48:42.840Z,2.50
2018-05-07T09:51:11.953Z,2.55
2018-05-07T09:53:40.328Z,2.62
2018-05-07T09:56:08.693Z,2.42
2018-05-07T09:58:37.068Z,2.58
2018-05-07T10:01:06.172Z,2.35
2018-05-07T10:03:35.119Z,2.00
2018-05-07T10:06:03.473Z,2.35
2018-05-07T10:08:31.812Z,2.08
2018-05-07T10:11:01.530Z,2.33
2018-05-07T10:13:29.894Z,2.17
2018-05-07T10:15:59.017Z,2.20
2018-05-07T10:18:27.410Z,2.25
2018-05-07T10:20:55.799Z,2.53
2018-05-07T10:23:24.224Z,2.33
2018-05-07T10:25:53.430Z,2.90
2018-05-07T10:28:22.560Z,2.37
2018-05-07T10:30:51.110Z,2.50
2018-05-07T10:33:20.307Z,2.55
2018-05-07T10:35:49.528Z,2.53
2018-05-07T10:38:18.099Z,2.25
2018-05-07T10:40:48.154Z,2.20
2018-05-07T10:43:16.513Z,2.10
2018-05-07T10:45:44.844Z,2.53
2018-05-07T10:48:13.210Z,2.62
2018-05-07T10:50:41.579Z,2.22
2018-05-07T10:53:09.940Z,2.12
2018-05-07T10:55:38.639Z,2.03
2018-05-07T10:58:07.784Z,2.00
2018-05-07T11:00:36.984Z,1.60
2018-05-07T11:03:06.154Z,1.85
2018-05-07T11:05:34.537Z,1.90
2018-05-07T11:08:02.873Z,1.92
2018-05-07T11:10:31.219Z,1.90
2018-05-07T11:13:00.298Z,1.70
2018-05-07T11:15:28.677Z,1.55
2018-05-07T11:17:57.024Z,1.50
2018-05-07T11:20:25.400Z,1.50
2018-05-07T11:22:53.728Z,1.80
2018-05-07T11:25:22.837Z,1.90
2018-05-07T11:27:51.256Z,1.77
2018-05-07T11:30:20.409Z,1.70
2018-05-07T11:32:48.779Z,1.20
2018-05-07T11:35:17.882Z,1.80
2018-05-07T11:37:46.243Z,1.60
2018-05-07T11:40:15.380Z,1.70
2018-05-07T11:42:43.727Z,1.48
2018-05-07T11:45:12.962Z,1.67
2018-05-07T11:47:41.598Z,1.55
2018-05-07T11:50:09.931Z,1.30
2018-05-07T11:52:38.286Z,1.70
2018-05-07T11:55:06.656Z,1.70
2018-05-07T11:57:35.018Z,1.75
2018-05-07T12:00:04.131Z,2.20
2018-05-07T12:02:33.266Z,1.80
2018-05-07T12:05:01.641Z,1.50
2018-05-07T12:07:29.973Z,1.60
2018-05-07T12:09:59.561Z,1.75
2018-05-07T12:12:27.944Z,1.48
2018-05-07T12:14:57.819Z,1.73
2018-05-07T12:17:27.657Z,1.77
2018-05-07T12:19:56.028Z,1.70
2018-05-07T12:22:24.370Z,1.60
2018-05-07T12:24:52.719Z,1.83
2018-05-07T12:27:21.806Z,1.73
2018-05-07T12:29:50.911Z,1.77
2018-05-07T12:32:20.036Z,1.60
2018-05-07T12:34:48.471Z,1.75
2018-05-07T12:37:17.592Z,1.80
2018-05-07T12:39:46.716Z,1.80
2018-05-07T12:42:15.152Z,1.87
2018-05-07T12:44:44.277Z,1.90
2018-05-07T12:47:12.692Z,1.70
2018-05-07T12:49:41.068Z,1.80
2018-05-07T12:52:09.451Z,1.97
2018-05-07T12:54:39.671Z,1.58
2018-05-07T12:57:08.821Z,1.70
2018-05-07T12:59:37.742Z,1.70
2018-05-07T13:02:06.156Z,2.10
2018-05-07T13:04:34.512Z,2.08
2018-05-07T13:07:02.847Z,2.17
2018-05-07T13:09:31.978Z,2.00
2018-05-07T13:12:00.351Z,1.87
2018-05-07T13:14:28.698Z,2.00
2018-05-07T13:16:57.070Z,2.05
2018-05-07T13:19:26.202Z,2.35
2018-05-07T13:21:55.375Z,2.05
2018-05-07T13:24:23.787Z,2.08
2018-05-07T13:26:52.122Z,1.80
2018-05-07T13:29:23.534Z,1.62
2018-05-07T13:31:51.954Z,2.22
2018-05-07T13:34:21.114Z,1.73
2018-05-07T13:36:49.535Z,1.75
2018-05-07T13:39:18.619Z,1.90
2018-05-07T13:41:47.723Z,1.90
2018-05-07T13:44:16.093Z,1.65
2018-05-07T13:46:46.015Z,1.77
2018-05-07T13:49:15.937Z,2.07
2018-05-07T13:51:44.325Z,1.75
2018-05-07T13:54:12.732Z,1.60
2018-05-07T13:56:41.066Z,2.30
2018-05-07T13:59:10.183Z,1.80
2018-05-07T14:01:38.599Z,2.20
2018-05-07T14:04:08.589Z,1.80
2018-05-07T14:06:37.043Z,1.62
2018-05-07T14:09:07.044Z,1.80
2018-05-07T14:11:36.189Z,1.80
2018-05-07T14:14:04.533Z,1.60
2018-05-07T14:16:32.904Z,2.10
2018-05-07T14:19:01.251Z,1.95
2018-05-07T14:21:29.609Z,1.90
2018-05-07T14:23:58.047Z,1.73
2018-05-07T14:26:26.478Z,1.98
2018-05-07T14:28:54.878Z,1.70
2018-05-07T14:31:23.198Z,1.90
2018-05-07T14:33:52.693Z,1.90
2018-05-07T14:36:21.033Z,1.50
2018-05-07T14:38:50.005Z,1.58
2018-05-07T14:41:18.544Z,1.80
2018-05-07T14:43:46.894Z,1.58
2018-05-07T14:46:17.204Z,1.63
2018-05-07T14:48:45.700Z,1.80
2018-05-07T14:51:13.993Z,1.80
2018-05-07T14:53:43.173Z,2.10
2018-05-07T14:56:11.589Z,1.70
2018-05-07T14:58:39.983Z,1.60
2018-05-07T15:01:08.984Z,1.80
2018-05-07T15:03:37.463Z,1.80
2018-05-07T15:06:06.115Z,1.65
2018-05-07T15:08:35.245Z,1.77
2018-05-07T15:11:03.730Z,1.77
2018-05-07T15:13:33.459Z,1.62
2018-05-07T15:16:02.722Z,1.40
2018-05-07T15:18:31.183Z,1.50
2018-05-07T15:21:00.594Z,1.60
2018-05-07T15:23:30.342Z,1.90
2018-05-07T15:25:58.671Z,1.75
2018-05-07T15:28:27.844Z,1.90
2018-05-07T15:30:56.942Z,1.52
2018-05-07T15:33:25.375Z,1.70
2018-05-07T15:35:55.279Z,1.73
2018-05-07T15:38:23.657Z,1.58
2018-05-07T15:40:52.091Z,1.95
2018-05-07T15:43:21.106Z,1.60
2018-05-07T15:45:51.469Z,1.70
2018-05-07T15:48:20.612Z,1.90
2018-05-07T15:50:49.266Z,1.55
2018-05-07T15:53:17.614Z,1.67
2018-05-07T15:55:46.141Z,1.80
2018-05-07T15:58:15.321Z,1.67
2018-05-07T16:00:44.542Z,1.85
2018-05-07T16:03:13.419Z,1.65
2018-05-07T16:05:41.686Z,1.52
2018-05-07T16:08:10.044Z,1.80
2018-05-07T16:10:40.249Z,1.67
2018-05-07T16:13:10.470Z,1.83
2018-05-07T16:15:39.681Z,1.70
2018-05-07T16:18:09.748Z,1.50
2018-05-07T16:20:38.182Z,1.58
2018-05-07T16:23:07.755Z,1.75
2018-05-07T16:25:36.115Z,1.67
2018-05-07T16:28:04.491Z,1.40
2018-05-07T16:30:32.948Z,1.62
2018-05-07T16:33:01.308Z,1.40
2018-05-07T16:35:30.472Z,2.17
2018-05-07T16:37:59.685Z,1.60
2018-05-07T16:40:28.145Z,1.85
2018-05-07T16:42:58.030Z,1.80
2018-05-07T16:45:28.448Z,2.65
2018-05-07T16:47:56.813Z,2.20
2018-05-07T16:50:25.945Z,2.03
2018-05-07T16:52:55.495Z,2.03
2018-05-07T16:55:23.864Z,1.70
2018-05-07T16:57:52.984Z,1.50
2018-05-07T17:00:21.558Z,1.70
2018-05-07T17:02:50.793Z,1.80
2018-05-07T17:05:19.351Z,2.03
2018-05-07T17:07:47.710Z,1.70
2018-05-07T17:10:16.959Z,1.70
2018-05-07T17:12:45.362Z,2.05
2018-05-07T17:15:14.584Z,2.00
2018-05-07T17:17:43.690Z,1.80
2018-05-07T17:20:12.204Z,1.73
2018-05-07T17:22:41.216Z,1.73
2018-05-07T17:25:09.760Z,1.60
2018-05-07T17:27:38.121Z,1.77
2018-05-07T17:30:07.515Z,1.92
2018-05-07T17:32:37.279Z,1.90
2018-05-07T17:35:06.054Z,1.80
2018-05-07T17:37:34.456Z,2.10
2018-05-07T17:40:03.644Z,1.92
2018-05-07T17:42:31.997Z,1.67
2018-05-07T17:45:18.141Z,1.80
2018-05-07T17:51:04.860Z,1.85
2018-05-07T17:53:33.224Z,1.62
2018-05-07T17:56:01.549Z,2.10
2018-05-07T17:58:30.661Z,1.70
2018-05-07T18:01:00.205Z,1.87
2018-05-07T18:03:28.559Z,1.95
2018-05-07T18:05:56.899Z,2.00
2018-05-07T18:08:25.250Z,1.92
2018-05-07T18:10:53.717Z,2.42
2018-05-07T18:13:22.939Z,2.50
2018-05-07T18:15:51.293Z,2.33
2018-05-07T18:18:20.165Z,2.20
2018-05-07T18:20:48.653Z,2.08
2018-05-07T18:23:17.078Z,2.10
2018-05-07T18:25:46.241Z,2.37
2018-05-07T18:28:15.486Z,2.30
2018-05-07T18:30:44.717Z,2.15
2018-05-07T18:33:13.986Z,2.35
2018-05-07T18:35:43.162Z,2.20
2018-05-07T18:38:12.273Z,2.12
2018-05-07T18:40:41.383Z,2.15
2018-05-07T18:43:09.742Z,2.20
2018-05-07T18:45:38.841Z,2.30
2018-05-07T18:48:08.053Z,2.30
2018-05-07T18:50:37.172Z,2.12
2018-05-07T18:53:06.554Z,2.20
2018-05-07T18:55:34.950Z,2.42
2018-05-07T18:58:04.593Z,2.12
2018-05-07T19:00:33.003Z,2.37
2018-05-07T19:03:02.144Z,2.40
2018-05-07T19:05:30.652Z,2.50
2018-05-07T19:07:59.179Z,2.40
2018-05-07T19:10:28.958Z,2.50
2018-05-07T19:12:57.300Z,2.58
2018-05-07T19:15:25.685Z,2.28
2018-05-07T19:17:54.047Z,2.65
2018-05-07T19:20:22.415Z,2.80
2018-05-07T19:22:50.946Z,2.70
2018-05-07T19:25:19.322Z,2.50
2018-05-07T19:27:47.717Z,2.33
2018-05-07T19:30:16.716Z,2.55
2018-05-07T19:32:45.113Z,2.53
2018-05-07T19:35:14.294Z,2.50
2018-05-07T19:37:43.534Z,2.80
2018-05-07T19:40:11.898Z,3.00
2018-05-07T19:42:40.289Z,3.05
2018-05-07T19:45:08.673Z,2.97
2018-05-07T19:47:37.087Z,3.00
2018-05-07T19:50:05.502Z,3.30
2018-05-07T19:52:34.669Z,3.67
2018-05-07T19:55:03.031Z,3.60
2018-05-07T19:57:31.452Z,3.50
2018-05-07T20:00:00.635Z,3.33
2018-05-07T20:02:29.165Z,3.37
2018-05-07T20:04:57.538Z,3.00
2018-05-07T20:07:25.901Z,3.40
2018-05-07T20:09:55.055Z,3.47
2018-05-07T20:12:23.423Z,3.28
2018-05-07T20:14:51.794Z,3.00
2018-05-07T20:17:20.215Z,3.47
2018-05-07T20:19:50.207Z,3.17
2018-05-07T20:22:19.329Z,2.93
2018-05-07T20:24:48.792Z,2.87
2018-05-07T20:27:17.149Z,3.10
2018-05-07T20:29:45.525Z,3.00
2018-05-07T20:32:13.905Z,3.10
2018-05-07T20:34:42.250Z,3.20
2018-05-07T20:37:11.429Z,2.97
2018-05-07T20:39:39.818Z,2.83
2018-05-07T20:42:08.928Z,3.10
2018-05-07T20:44:38.075Z,2.80
2018-05-07T20:47:06.575Z,3.20
2018-05-07T20:49:35.009Z,2.90
2018-05-07T20:52:03.377Z,3.00
2018-05-07T20:54:31.801Z,3.30
2018-05-07T20:57:00.207Z,3.40
2018-05-07T20:59:28.654Z,3.80
2018-05-07T21:01:57.026Z,3.83
2018-05-07T21:04:25.412Z,3.10
2018-05-07T21:06:53.780Z,3.53
2018-05-07T21:09:23.078Z,3.03
2018-05-07T21:11:51.433Z,3.00
2018-05-07T21:14:20.563Z,2.87
2018-05-07T21:16:48.942Z,2.90
2018-05-07T21:19:17.278Z,3.13
2018-05-07T21:21:46.433Z,2.87
2018-05-07T21:24:14.761Z,3.10
2018-05-07T21:26:43.126Z,2.83
2018-05-07T21:29:12.283Z,2.90
2018-05-07T21:31:40.639Z,3.37
2018-05-07T21:34:08.985Z,3.33
2018-05-07T21:36:37.304Z,3.20
2018-05-07T21:39:06.673Z,3.13
2018-05-07T21:41:35.022Z,3.43
2018-05-07T21:44:03.386Z,3.30
2018-05-07T21:46:31.751Z,3.30
2018-05-07T21:49:00.131Z,3.27
2018-05-07T21:51:28.479Z,3.27
2018-05-07T21:53:56.845Z,3.17
2018-05-07T21:56:25.193Z,3.30
2018-05-07T21:58:54.363Z,3.50
2018-05-07T22:01:22.733Z,3.40
2018-05-07T22:03:51.082Z,3.30
2018-05-07T22:06:19.439Z,3.70
2018-05-07T22:08:48.531Z,3.47
2018-05-07T22:11:17.648Z,3.50
2018-05-07T22:13:46.995Z,3.57
2018-05-07T22:16:15.334Z,3.60
2018-05-07T22:18:43.673Z,3.70
2018-05-07T22:21:12.839Z,3.50
2018-05-07T22:23:41.193Z,3.70
2018-05-07T22:26:09.609Z,3.90
2018-05-07T22:28:38.182Z,3.50
2018-05-07T22:31:06.643Z,3.33
2018-05-07T22:33:35.004Z,3.23
2018-05-07T22:36:04.410Z,3.20
2018-05-07T22:38:32.784Z,3.70
2018-05-07T22:41:01.137Z,3.30
2018-05-07T22:43:30.257Z,3.30
2018-05-07T22:45:58.602Z,3.30
2018-05-07T22:48:26.977Z,3.50
2018-05-07T22:50:55.423Z,3.13
2018-05-07T22:53:23.793Z,3.30
2018-05-07T22:55:52.188Z,3.63
2018-05-07T22:58:20.560Z,3.10
2018-05-07T23:00:48.934Z,3.43
2018-05-07T23:03:17.276Z,3.37
2018-05-07T23:05:46.487Z,3.10
2018-05-07T23:08:14.860Z,3.40
2018-05-07T23:10:43.308Z,3.20
2018-05-07T23:13:11.685Z,3.30
2018-05-07T23:15:40.195Z,3.33
2018-05-07T23:18:09.318Z,3.20
2018-05-07T23:20:37.661Z,2.97
2018-05-07T23:23:06.776Z,3.00
2018-05-07T23:25:35.157Z,3.07
2018-05-07T23:28:03.856Z,3.33
2018-05-07T23:30:32.192Z,3.23
2018-05-07T23:33:01.360Z,3.60
2018-05-07T23:35:29.729Z,3.13
2018-05-07T23:37:58.079Z,3.00
2018-05-07T23:40:26.562Z,3.03
2018-05-07T23:42:54.917Z,3.43
2018-05-07T23:45:24.932Z,3.30
2018-05-07T23:47:54.028Z,3.30
2018-05-07T23:50:22.405Z,3.33
2018-05-07T23:52:51.516Z,3.23
2018-05-07T23:55:19.865Z,3.20
2018-05-07T23:57:49.232Z,3.13
